Time;durP1;ratioP1;P1;durP2;ratioP2;P2;SDS_P1;SDS_P2;PMS_P1;PMS_P2;Temp;Humidity;BMP_temperature;BMP_pressure;BME280_temperature;BME280_humidity;BME280_pressure;Samples;Min_cycle;Max_cycle;Signal;HPM_P1;HPM_P2
2022/11/03 00:01:56;;;;;;;;;;;;;;;;;;5032354;28;19975;-56
2022/11/03 00:04:22;;;;;;;;;;;;;;;;;;5017028;28;19929;-59
2022/11/03 00:06:50;;;;;;;;;;;;;;;;;;5012432;28;19969;-54
2022/11/03 00:09:17;;;;;;;;;;;;;;;;;;5014812;28;19925;-55
2022/11/03 00:11:45;;;;;;;;;;;;;;;;;;5015758;28;19933;-58
2022/11/03 00:14:13;;;;;;;;;;;;;;;;;;5015516;28;19948;-57
2022/11/03 00:16:40;;;;;;;;;;;;;;;;;;5014632;28;19926;-56
2022/11/03 00:19:08;;;;;;;;;;;;;;;;;;5014367;28;19926;-58
2022/11/03 00:21:35;;;;;;;;;;;;;;;;;;5014628;28;20349;-55
2022/11/03 00:24:02;;;;;;;;;;;;;;;;;;5014746;28;20402;-57
2022/11/03 00:26:29;;;;;;;;;;;;;;;;;;5015161;28;19980;-56
2022/11/03 00:28:56;;;;;;;;;;;;;;;;;;5015022;28;19926;-56
2022/11/03 00:31:24;;;;;;;;;;;;;;;;;;5015668;28;20104;-55
2022/11/03 00:33:50;;;;;;;;;;;;;;;;;;5015639;28;19925;-58
2022/11/03 00:36:19;;;;;;;;;;;;;;;;;;5015435;28;19926;-58
2022/11/03 00:38:46;;;;;;;;;;;;;;;;;;5015061;28;20394;-57
2022/11/03 00:41:13;;;;;;;;;;;;;;;;;;5015018;28;19926;-56
2022/11/03 00:43:40;;;;;;;;;;;;;;;;;;5015437;28;19925;-58
2022/11/03 00:46:07;;;;;;;;;;;;;;;;;;5015476;28;19925;-59
2022/11/03 00:48:35;;;;;;;;;;;;;;;;;;5015358;28;19980;-54
2022/11/03 00:51:02;;;;;;;;;;;;;;;;;;5015438;28;19976;-58
2022/11/03 00:53:30;;;;;;;;;;;;;;;;;;5015124;28;19972;-57
2022/11/03 00:55:57;;;;;;;;;;;;;;;;;;5015366;28;20353;-58
2022/11/03 00:58:23;;;;;;;;;;;;;;;;;;5015046;28;20369;-58
2022/11/03 01:00:50;;;;;;;;;;;;;;;;;;5015258;28;20297;-56
2022/11/03 01:03:16;;;;;;;;;;;;;;;;;;5015321;28;20274;-58
2022/11/03 01:08:33;;;;;;;;;;;;;;;;;;5014790;28;19933;-58
2022/11/03 01:13:51;;;;;;;;;;;;;;;;;;5015031;28;20064;-58
2022/11/03 01:16:18;;;;;;;;;;;;;;;;;;5014794;28;19925;-57
2022/11/03 01:18:44;;;;;;;;;;;;;;;;;;5013904;28;19956;-57
2022/11/03 01:21:11;;;;;;;;;;;;;;;;;;5013932;28;19968;-56
2022/11/03 01:23:39;;;;;;;;;;;;;;;;;;5014747;28;19929;-57
2022/11/03 01:26:06;;;;;;;;;;;;;;;;;;5014677;28;19944;-59
2022/11/03 01:28:33;;;;;;;;;;;;;;;;;;5014305;28;19925;-57
2022/11/03 01:31:03;;;;;;;;;;;;;;;;;;5014404;28;20370;-59
2022/11/03 01:33:29;;;;;;;;;;;;;;;;;;5014728;28;19925;-58
2022/11/03 01:35:56;;;;;;;;;;;;;;;;;;5014542;28;19925;-58
2022/11/03 01:38:22;;;;;;;;;;;;;;;;;;5014277;28;20402;-61
2022/11/03 01:40:50;;;;;;;;;;;;;;;;;;5014512;28;19945;-62
2022/11/03 01:43:18;;;;;;;;;;;;;;;;;;5014261;28;19929;-61
2022/11/03 01:45:44;;;;;;;;;;;;;;;;;;5014224;28;20315;-60
2022/11/03 01:48:12;;;;;;;;;;;;;;;;;;5014125;28;20004;-61
2022/11/03 01:50:40;;;;;;;;;;;;;;;;;;5014075;28;19929;-62
2022/11/03 01:53:07;;;;;;;;;;;;;;;;;;5014156;28;20015;-64
2022/11/03 01:55:38;;;;;;;;;;;;;;;;;;5014138;28;19926;-61
2022/11/03 01:58:10;;;;;;;;;;;;;;;;;;5013871;28;19936;-60
2022/11/03 02:00:37;;;;;;;;;;;;;;;;;;5013926;28;19933;-61
2022/11/03 02:03:04;;;;;;;;;;;;;;;;;;5018157;28;19933;-59
2022/11/03 02:05:30;;;;;;;;;;;;;;;;;;5033674;28;19929;-60
2022/11/03 02:07:58;;;;;;;;;;;;;;;;;;5033806;28;19987;-60
2022/11/03 02:10:25;;;;;;;;;;;;;;;;;;5033096;28;19940;-60
2022/11/03 02:12:52;;;;;;;;;;;;;;;;;;5033880;28;19929;-60
2022/11/03 02:15:21;;;;;;;;;;;;;;;;;;5033344;28;19945;-60
2022/11/03 02:17:49;;;;;;;;;;;;;;;;;;5033002;28;19925;-60
2022/11/03 02:20:17;;;;;;;;;;;;;;;;;;5033287;28;19936;-61
2022/11/03 02:22:59;;;;;;;;;;;;;;;;;;5033292;28;19925;-61
2022/11/03 02:25:35;;;;;;;;;;;;;;;;;;5032282;28;20362;-61
2022/11/03 02:28:02;;;;;;;;;;;;;;;;;;5032908;28;19925;-61
2022/11/03 02:30:32;;;;;;;;;;;;;;;;;;5032625;28;19979;-58
2022/11/03 02:33:05;;;;;;;;;;;;;;;;;;5033176;28;19925;-59
2022/11/03 02:35:36;;;;;;;;;;;;;;;;;;5032898;28;19925;-61
2022/11/03 02:38:04;;;;;;;;;;;;;;;;;;5033295;28;20275;-62
2022/11/03 02:40:33;;;;;;;;;;;;;;;;;;5033156;28;20302;-61
2022/11/03 02:43:02;;;;;;;;;;;;;;;;;;5033061;28;19932;-58
2022/11/03 02:45:28;;;;;;;;;;;;;;;;;;5032804;28;20325;-61
2022/11/03 02:47:57;;;;;;;;;;;;;;;;;;5032964;28;20318;-61
2022/11/03 02:50:26;;;;;;;;;;;;;;;;;;5032597;28;19947;-60
2022/11/03 02:52:53;;;;;;;;;;;;;;;;;;5032928;28;20278;-60
2022/11/03 02:55:22;;;;;;;;;;;;;;;;;;5032932;28;19929;-59
2022/11/03 02:57:53;;;;;;;;;;;;;;;;;;5032784;28;19929;-60
2022/11/03 03:00:21;;;;;;;;;;;;;;;;;;5032466;28;19925;-59
2022/11/03 03:02:51;;;;;;;;;;;;;;;;;;5030732;28;19925;-60
2022/11/03 03:05:19;;;;;;;;;;;;;;;;;;5012950;28;19926;-60
2022/11/03 03:07:47;;;;;;;;;;;;;;;;;;5012395;28;19929;-60
2022/11/03 03:10:16;;;;;;;;;;;;;;;;;;5012599;28;19925;-59
2022/11/03 03:12:45;;;;;;;;;;;;;;;;;;5013004;28;19925;-59
2022/11/03 03:15:11;;;;;;;;;;;;;;;;;;5012466;28;19925;-58
2022/11/03 03:17:43;;;;;;;;;;;;;;;;;;5012725;28;19929;-61
2022/11/03 03:20:13;;;;;;;;;;;;;;;;;;5012423;28;19969;-60
2022/11/03 03:22:42;;;;;;;;;;;;;;;;;;5012585;28;20318;-59
2022/11/03 03:25:11;;;;;;;;;;;;;;;;;;5012522;28;20082;-61
2022/11/03 03:27:39;;;;;;;;;;;;;;;;;;5012422;28;19929;-59
2022/11/03 03:30:07;;;;;;;;;;;;;;;;;;5012433;28;19925;-59
2022/11/03 03:32:36;;;;;;;;;;;;;;;;;;5012489;28;19925;-61
2022/11/03 03:35:06;;;;;;;;;;;;;;;;;;5012401;28;19944;-60
2022/11/03 03:37:35;;;;;;;;;;;;;;;;;;5012374;28;20369;-59
2022/11/03 03:40:03;;;;;;;;;;;;;;;;;;5012180;28;19925;-61
2022/11/03 03:42:31;;;;;;;;;;;;;;;;;;5012557;28;20425;-61
2022/11/03 03:44:58;;;;;;;;;;;;;;;;;;5016036;28;19926;-61
2022/11/03 03:47:27;;;;;;;;;;;;;;;;;;5016134;28;19925;-60
2022/11/03 03:49:54;;;;;;;;;;;;;;;;;;5016160;28;19929;-61
2022/11/03 03:52:22;;;;;;;;;;;;;;;;;;5016218;28;20205;-59
2022/11/03 03:54:48;;;;;;;;;;;;;;;;;;5016343;28;19972;-61
2022/11/03 03:57:16;;;;;;;;;;;;;;;;;;5016432;28;20033;-60
2022/11/03 03:59:43;;;;;;;;;;;;;;;;;;5015827;28;19960;-60
2022/11/03 04:02:10;;;;;;;;;;;;;;;;;;5016145;28;19940;-59
2022/11/03 04:04:37;;;;;;;;;;;;;;;;;;5032421;28;19925;-62
2022/11/03 04:09:49;;;;;;;;;;;;;;;;;;5035417;28;19948;-61
2022/11/03 04:23:13;;;;;;;;;;;;;;;;;;5035793;28;19933;-61
2022/11/03 04:25:41;;;;;;;;;;;;;;;;;;5035515;28;20352;-59
2022/11/03 04:28:09;;;;;;;;;;;;;;;;;;5035281;28;20389;-61
2022/11/03 04:30:35;;;;;;;;;;;;;;;;;;5035216;28;19984;-62
2022/11/03 04:33:02;;;;;;;;;;;;;;;;;;5035906;28;19932;-62
2022/11/03 04:35:29;;;;;;;;;;;;;;;;;;5035126;28;19925;-60
2022/11/03 04:37:56;;;;;;;;;;;;;;;;;;5035327;28;20294;-61
2022/11/03 04:40:23;;;;;;;;;;;;;;;;;;5035330;28;20026;-61
2022/11/03 04:42:51;;;;;;;;;;;;;;;;;;5035150;28;19951;-61
2022/11/03 04:45:22;;;;;;;;;;;;;;;;;;5034627;28;19925;-61
2022/11/03 04:47:49;;;;;;;;;;;;;;;;;;5035101;28;20301;-61
2022/11/03 04:50:18;;;;;;;;;;;;;;;;;;5034562;28;19986;-61
2022/11/03 04:52:45;;;;;;;;;;;;;;;;;;5034966;28;20015;-62
2022/11/03 04:55:14;;;;;;;;;;;;;;;;;;5034599;28;19929;-59
2022/11/03 04:57:40;;;;;;;;;;;;;;;;;;5035025;28;19925;-61
2022/11/03 05:00:13;;;;;;;;;;;;;;;;;;5035066;28;20413;-61
2022/11/03 05:02:40;;;;;;;;;;;;;;;;;;5033961;28;20003;-60
2022/11/03 05:05:14;;;;;;;;;;;;;;;;;;5014697;28;19932;-60
2022/11/03 05:07:41;;;;;;;;;;;;;;;;;;5014744;28;19929;-61
2022/11/03 05:10:07;;;;;;;;;;;;;;;;;;5014750;28;20302;-61
2022/11/03 05:12:34;;;;;;;;;;;;;;;;;;5014862;28;20028;-61
2022/11/03 05:15:03;;;;;;;;;;;;;;;;;;5015018;28;19949;-62
2022/11/03 05:17:31;;;;;;;;;;;;;;;;;;5014637;28;19925;-61
2022/11/03 05:20:00;;;;;;;;;;;;;;;;;;5014466;28;19933;-62
2022/11/03 05:22:29;;;;;;;;;;;;;;;;;;5014456;28;19933;-62
2022/11/03 05:24:58;;;;;;;;;;;;;;;;;;5014566;28;19929;-62
2022/11/03 05:27:24;;;;;;;;;;;;;;;;;;5014495;28;19929;-59
2022/11/03 05:29:52;;;;;;;;;;;;;;;;;;5014403;28;19931;-61
2022/11/03 05:32:23;;;;;;;;;;;;;;;;;;5014750;28;20371;-61
2022/11/03 05:34:51;;;;;;;;;;;;;;;;;;5014292;28;19979;-60
2022/11/03 05:37:25;;;;;;;;;;;;;;;;;;5014233;28;19932;-61
2022/11/03 05:39:53;;;;;;;;;;;;;;;;;;5014435;28;20444;-61
2022/11/03 05:42:26;;;;;;;;;;;;;;;;;;5014551;28;20294;-60
2022/11/03 05:44:52;;;;;;;;;;;;;;;;;;5014285;28;19925;-62
2022/11/03 05:47:20;;;;;;;;;;;;;;;;;;5014106;28;19925;-61
2022/11/03 05:49:47;;;;;;;;;;;;;;;;;;5014252;28;20255;-61
2022/11/03 05:52:19;;;;;;;;;;;;;;;;;;5013923;28;19926;-61
2022/11/03 05:54:46;;;;;;;;;;;;;;;;;;5014127;28;19933;-60
2022/11/03 05:57:13;;;;;;;;;;;;;;;;;;5014024;28;20375;-59
2022/11/03 05:59:40;;;;;;;;;;;;;;;;;;5013375;28;19925;-60
2022/11/03 06:02:16;;;;;;;;;;;;;;;;;;5013900;28;19926;-60
2022/11/03 06:04:43;;;;;;;;;;;;;;;;;;5031496;28;20386;-60
2022/11/03 06:07:16;;;;;;;;;;;;;;;;;;5033193;28;19925;-60
2022/11/03 06:09:44;;;;;;;;;;;;;;;;;;5033500;28;20393;-60
2022/11/03 06:12:15;;;;;;;;;;;;;;;;;;5032917;28;19968;-59
2022/11/03 06:14:41;;;;;;;;;;;;;;;;;;5032285;28;20397;-61
2022/11/03 06:17:12;;;;;;;;;;;;;;;;;;5033331;28;19926;-61
2022/11/03 06:19:39;;;;;;;;;;;;;;;;;;5033334;28;19932;-61
2022/11/03 06:22:11;;;;;;;;;;;;;;;;;;5033290;28;20048;-61
2022/11/03 06:24:38;;;;;;;;;;;;;;;;;;5033233;28;19925;-61
2022/11/03 06:27:09;;;;;;;;;;;;;;;;;;5032873;28;19929;-61
2022/11/03 06:29:35;;;;;;;;;;;;;;;;;;5032646;28;19925;-59
2022/11/03 06:32:02;;;;;;;;;;;;;;;;;;5033065;28;19932;-62
2022/11/03 06:34:34;;;;;;;;;;;;;;;;;;5033426;28;19925;-61
2022/11/03 06:37:05;;;;;;;;;;;;;;;;;;5032865;28;20329;-61
2022/11/03 06:39:33;;;;;;;;;;;;;;;;;;5032638;28;19929;-60
2022/11/03 06:42:05;;;;;;;;;;;;;;;;;;5033029;28;19955;-60
2022/11/03 06:44:33;;;;;;;;;;;;;;;;;;5024292;28;19956;-61
2022/11/03 06:47:01;;;;;;;;;;;;;;;;;;5029685;28;19979;-61
2022/11/03 06:49:29;;;;;;;;;;;;;;;;;;5021653;28;19976;-60
2022/11/03 06:51:56;;;;;;;;;;;;;;;;;;5023725;28;19933;-58
2022/11/03 06:54:23;;;;;;;;;;;;;;;;;;5017432;28;19932;-61
2022/11/03 06:56:50;;;;;;;;;;;;;;;;;;5012929;28;19972;-60
2022/11/03 06:59:18;;;;;;;;;;;;;;;;;;5012840;28;19925;-59
2022/11/03 07:01:46;;;;;;;;;;;;;;;;;;5012720;28;19926;-59
2022/11/03 07:04:14;;;;;;;;;;;;;;;;;;5026247;28;20286;-60
2022/11/03 07:06:42;;;;;;;;;;;;;;;;;;5032390;28;19925;-60
2022/11/03 07:09:13;;;;;;;;;;;;;;;;;;5032471;28;19931;-60
2022/11/03 07:11:42;;;;;;;;;;;;;;;;;;5032453;28;19925;-61
2022/11/03 07:14:11;;;;;;;;;;;;;;;;;;5032795;28;19925;-61
2022/11/03 07:16:39;;;;;;;;;;;;;;;;;;5032375;28;19963;-60
2022/11/03 07:19:11;;;;;;;;;;;;;;;;;;5031280;28;20283;-57
2022/11/03 07:21:39;;;;;;;;;;;;;;;;;;5032774;28;19933;-56
2022/11/03 07:24:12;;;;;;;;;;;;;;;;;;5032512;28;20440;-58
2022/11/03 07:26:39;;;;;;;;;;;;;;;;;;5032321;28;20566;-58
2022/11/03 07:29:07;;;;;;;;;;;;;;;;;;5031932;28;19932;-58
2022/11/03 07:31:34;;;;;;;;;;;;;;;;;;5032386;28;19925;-58
2022/11/03 07:34:00;;;;;;;;;;;;;;;;;;5032477;28;20274;-54
2022/11/03 07:36:31;;;;;;;;;;;;;;;;;;5032132;28;19936;-52
2022/11/03 07:38:59;;;;;;;;;;;;;;;;;;5032197;28;20400;-58
2022/11/03 07:41:27;;;;;;;;;;;;;;;;;;5032691;28;19987;-58
2022/11/03 07:43:55;;;;;;;;;;;;;;;;;;5032033;28;20008;-57
2022/11/03 07:46:22;;;;;;;;;;;;;;;;;;5031658;28;19929;-57
2022/11/03 07:48:49;;;;;;;;;;;;;;;;;;5031797;28;19925;-57
2022/11/03 07:51:18;;;;;;;;;;;;;;;;;;5031666;28;19925;-58
2022/11/03 07:53:47;;;;;;;;;;;;;;;;;;5032053;28;19925;-57
2022/11/03 07:56:16;;;;;;;;;;;;;;;;;;5032034;28;19971;-58
2022/11/03 07:58:43;;;;;;;;;;;;;;;;;;5031832;28;19964;-58
2022/11/03 08:01:19;;;;;;;;;;;;;;;;;;5031622;28;19979;-59
2022/11/03 08:03:47;;;;;;;;;;;;;;;;;;5022021;28;19980;-59
2022/11/03 08:06:13;;;;;;;;;;;;;;;;;;5011662;28;19934;-54
2022/11/03 08:08:40;;;;;;;;;;;;;;;;;;5037973;28;19929;-59
2022/11/03 08:11:08;;;;;;;;;;;;;;;;;;5030650;28;20016;-59
2022/11/03 08:13:35;;;;;;;;;;;;;;;;;;5030376;28;19926;-57
2022/11/03 08:16:01;;;;;;;;;;;;;;;;;;5029212;28;19925;-57
2022/11/03 08:18:28;;;;;;;;;;;;;;;;;;5029702;28;19929;-59
2022/11/03 08:20:54;;;;;;;;;;;;;;;;;;5029504;28;20168;-58
2022/11/03 08:23:21;;;;;;;;;;;;;;;;;;5029802;28;19936;-58
2022/11/03 08:25:47;;;;;;;;;;;;;;;;;;5029974;28;19941;-55
2022/11/03 08:28:15;;;;;;;;;;;;;;;;;;5030066;28;19986;-58
2022/11/03 08:30:42;;;;;;;;;;;;;;;;;;5033075;28;19972;-59
2022/11/03 08:33:08;;;;;;;;;;;;;;;;;;5033992;28;19925;-57
2022/11/03 08:35:35;;;;;;;;;;;;;;;;;;5033270;28;19948;-58
2022/11/03 08:38:02;;;;;;;;;;;;;;;;;;5033250;28;19980;-59
2022/11/03 08:40:28;;;;;;;;;;;;;;;;;;5033996;28;19925;-57
2022/11/03 08:42:55;;;;;;;;;;;;;;;;;;5033531;28;19967;-58
2022/11/03 08:45:23;;;;;;;;;;;;;;;;;;5033108;28;19925;-58
2022/11/03 08:47:49;;;;;;;;;;;;;;;;;;5033374;28;20329;-57
2022/11/03 08:50:16;;;;;;;;;;;;;;;;;;5033061;28;19932;-58
2022/11/03 08:52:43;;;;;;;;;;;;;;;;;;5033040;28;19932;-59
2022/11/03 08:55:09;;;;;;;;;;;;;;;;;;5032835;28;19925;-59
2022/11/03 08:57:36;;;;;;;;;;;;;;;;;;5033016;28;19994;-59
2022/11/03 09:00:04;;;;;;;;;;;;;;;;;;5032745;28;20015;-57
2022/11/03 09:02:32;;;;;;;;;;;;;;;;;;5032983;28;19925;-59
2022/11/03 09:04:59;;;;;;;;;;;;;;;;;;5013067;28;19926;-59
2022/11/03 09:07:25;;;;;;;;;;;;;;;;;;5012874;28;20349;-59
2022/11/03 09:09:52;;;;;;;;;;;;;;;;;;5023537;28;20404;-54
2022/11/03 09:12:18;;;;;;;;;;;;;;;;;;5053020;28;20283;-59
2022/11/03 09:14:45;;;;;;;;;;;;;;;;;;5052729;28;19924;-59
2022/11/03 09:17:11;;;;;;;;;;;;;;;;;;5052652;28;19933;-57
2022/11/03 09:19:39;;;;;;;;;;;;;;;;;;5052089;28;19936;-58
2022/11/03 09:22:06;;;;;;;;;;;;;;;;;;5052686;28;20340;-57
2022/11/03 09:24:32;;;;;;;;;;;;;;;;;;5052560;28;19979;-56
2022/11/03 09:26:59;;;;;;;;;;;;;;;;;;5052485;28;19948;-58
2022/11/03 09:29:26;;;;;;;;;;;;;;;;;;5052160;28;19978;-59
2022/11/03 09:31:53;;;;;;;;;;;;;;;;;;5052120;28;19925;-61
2022/11/03 09:34:19;;;;;;;;;;;;;;;;;;5051934;28;20406;-58
2022/11/03 09:36:47;;;;;;;;;;;;;;;;;;5052375;28;20294;-59
2022/11/03 09:39:14;;;;;;;;;;;;;;;;;;5051912;28;19924;-59
2022/11/03 09:41:40;;;;;;;;;;;;;;;;;;5051220;28;20099;-58
2022/11/03 09:44:07;;;;;;;;;;;;;;;;;;5051986;28;19978;-59
2022/11/03 09:46:35;;;;;;;;;;;;;;;;;;5052267;28;20092;-59
2022/11/03 09:49:02;;;;;;;;;;;;;;;;;;5051903;28;19935;-59
2022/11/03 09:51:29;;;;;;;;;;;;;;;;;;5051828;28;19970;-57
2022/11/03 09:53:58;;;;;;;;;;;;;;;;;;5051791;28;19924;-55
2022/11/03 09:56:26;;;;;;;;;;;;;;;;;;5052012;28;20386;-59
2022/11/03 09:58:52;;;;;;;;;;;;;;;;;;5040175;28;19971;-58
2022/11/03 10:01:19;;;;;;;;;;;;;;;;;;5031610;28;19924;-60
2022/11/03 10:03:46;;;;;;;;;;;;;;;;;;5031494;28;19961;-58
2022/11/03 10:06:12;;;;;;;;;;;;;;;;;;5032020;28;20386;-59
2022/11/03 10:08:40;;;;;;;;;;;;;;;;;;5031787;28;19972;-59
2022/11/03 10:11:09;;;;;;;;;;;;;;;;;;5031639;28;20345;-59
2022/11/03 10:13:37;;;;;;;;;;;;;;;;;;5031888;28;19929;-59
2022/11/03 10:16:05;;;;;;;;;;;;;;;;;;5031277;28;19972;-59
2022/11/03 10:18:33;;;;;;;;;;;;;;;;;;5031789;28;20567;-59
2022/11/03 10:21:03;;;;;;;;;;;;;;;;;;5031062;28;19925;-57
2022/11/03 10:23:29;;;;;;;;;;;;;;;;;;5031430;28;19929;-58
2022/11/03 10:26:03;;;;;;;;;;;;;;;;;;5031584;28;19925;-55
2022/11/03 10:28:31;;;;;;;;;;;;;;;;;;5031216;28;20404;-59
2022/11/03 10:31:08;;;;;;;;;;;;;;;;;;5031468;28;19964;-58
2022/11/03 10:33:39;;;;;;;;;;;;;;;;;;5031392;28;19931;-59
2022/11/03 10:36:21;;;;;;;;;;;;;;;;;;5029710;28;20401;-57
2022/11/03 10:38:48;;;;;;;;;;;;;;;;;;5031002;28;19933;-57
2022/11/03 10:41:15;;;;;;;;;;;;;;;;;;5030776;28;19932;-59
2022/11/03 10:43:44;;;;;;;;;;;;;;;;;;5030882;28;20468;-59
2022/11/03 10:46:15;;;;;;;;;;;;;;;;;;5030881;28;19980;-58
2022/11/03 10:48:42;;;;;;;;;;;;;;;;;;5030840;28;20476;-59
2022/11/03 10:51:10;;;;;;;;;;;;;;;;;;5030559;28;19991;-58
2022/11/03 10:53:37;;;;;;;;;;;;;;;;;;5030662;28;20355;-59
2022/11/03 10:56:04;;;;;;;;;;;;;;;;;;5030918;28;19984;-59
2022/11/03 10:58:31;;;;;;;;;;;;;;;;;;5031294;28;20329;-58
2022/11/03 11:00:59;;;;;;;;;;;;;;;;;;5030774;28;19934;-58
2022/11/03 11:03:26;;;;;;;;;;;;;;;;;;5023807;28;20605;-58
2022/11/03 11:05:52;;;;;;;;;;;;;;;;;;5010532;28;19929;-59
2022/11/03 11:08:22;;;;;;;;;;;;;;;;;;5010952;28;19937;-68
2022/11/03 11:10:48;;;;;;;;;;;;;;;;;;5010748;28;20427;-58
2022/11/03 11:13:26;;;;;;;;;;;;;;;;;;5031051;28;19924;-58
2022/11/03 11:15:53;;;;;;;;;;;;;;;;;;5050031;28;19931;-58
2022/11/03 11:18:38;;;;;;;;;;;;;;;;;;5049909;28;19932;-58
2022/11/03 11:21:31;;;;;;;;;;;;;;;;;;5050147;28;20003;-58
2022/11/03 11:23:58;;;;;;;;;;;;;;;;;;5050271;28;20378;-58
2022/11/03 11:26:33;;;;;;;;;;;;;;;;;;5050293;28;19955;-58
2022/11/03 11:29:19;;;;;;;;;;;;;;;;;;5050078;28;19982;-58
2022/11/03 11:31:45;;;;;;;;;;;;;;;;;;5050536;28;20448;-58
2022/11/03 11:34:30;;;;;;;;;;;;;;;;;;5050512;28;20271;-62
2022/11/03 11:37:16;;;;;;;;;;;;;;;;;;5050103;28;19925;-62
2022/11/03 11:39:44;;;;;;;;;;;;;;;;;;5049653;28;19932;-58
2022/11/03 11:42:12;;;;;;;;;;;;;;;;;;5050195;28;19925;-58
2022/11/03 11:44:56;;;;;;;;;;;;;;;;;;5050390;28;19935;-58
2022/11/03 11:47:27;;;;;;;;;;;;;;;;;;5050016;28;20012;-58
2022/11/03 11:50:13;;;;;;;;;;;;;;;;;;5050109;28;19925;-58
2022/11/03 11:52:41;;;;;;;;;;;;;;;;;;5050236;28;20006;-58
2022/11/03 11:55:16;;;;;;;;;;;;;;;;;;5049926;28;19932;-58
2022/11/03 11:57:42;;;;;;;;;;;;;;;;;;5049934;28;19986;-58
2022/11/03 12:00:17;;;;;;;;;;;;;;;;;;5049816;28;19933;-57
2022/11/03 12:02:46;;;;;;;;;;;;;;;;;;5048807;28;19970;-58
2022/11/03 12:05:18;;;;;;;;;;;;;;;;;;5033250;28;19925;-58
2022/11/03 12:07:44;;;;;;;;;;;;;;;;;;5033960;28;19925;-58
2022/11/03 12:10:14;;;;;;;;;;;;;;;;;;5033615;28;19924;-58
2022/11/03 12:12:41;;;;;;;;;;;;;;;;;;5034006;28;19932;-58
2022/11/03 12:15:23;;;;;;;;;;;;;;;;;;5033815;28;20515;-57
2022/11/03 12:17:49;;;;;;;;;;;;;;;;;;5035021;28;19963;-57
2022/11/03 12:20:34;;;;;;;;;;;;;;;;;;5033551;28;19933;-58
2022/11/03 12:23:01;;;;;;;;;;;;;;;;;;5033729;28;20453;-58
2022/11/03 12:25:38;;;;;;;;;;;;;;;;;;5033601;28;20567;-58
2022/11/03 12:28:05;;;;;;;;;;;;;;;;;;5033621;28;19932;-58
2022/11/03 12:30:32;;;;;;;;;;;;;;;;;;5033180;28;20476;-57
2022/11/03 12:32:58;;;;;;;;;;;;;;;;;;5033502;28;20030;-57
2022/11/03 12:35:25;;;;;;;;;;;;;;;;;;5033469;28;20002;-57
2022/11/03 12:37:52;;;;;;;;;;;;;;;;;;5033606;28;19931;-58
2022/11/03 12:40:18;;;;;;;;;;;;;;;;;;5033541;28;20433;-58
2022/11/03 12:42:46;;;;;;;;;;;;;;;;;;5033525;28;19951;-58
2022/11/03 12:45:13;;;;;;;;;;;;;;;;;;5033326;28;19929;-57
2022/11/03 12:47:40;;;;;;;;;;;;;;;;;;5032916;28;20019;-57
2022/11/03 12:50:06;;;;;;;;;;;;;;;;;;5035947;28;19925;-57
2022/11/03 12:52:33;;;;;;;;;;;;;;;;;;5053092;28;19947;-58
2022/11/03 12:55:00;;;;;;;;;;;;;;;;;;5053578;28;20319;-58
2022/11/03 12:57:26;;;;;;;;;;;;;;;;;;5053311;28;19931;-56
2022/11/03 12:59:54;;;;;;;;;;;;;;;;;;5053305;28;19933;-58
2022/11/03 13:02:21;;;;;;;;;;;;;;;;;;5053269;28;19925;-57
2022/11/03 13:04:48;;;;;;;;;;;;;;;;;;5033141;28;19929;-58
2022/11/03 13:07:14;;;;;;;;;;;;;;;;;;5033431;28;19925;-59
2022/11/03 13:09:42;;;;;;;;;;;;;;;;;;5032914;28;19925;-56
2022/11/03 13:14:57;;;;;;;;;;;;;;;;;;5032790;28;20401;-57
2022/11/03 13:17:23;;;;;;;;;;;;;;;;;;5032491;28;20407;-56
2022/11/03 13:19:50;;;;;;;;;;;;;;;;;;5034217;28;19929;-54
2022/11/03 13:22:16;;;;;;;;;;;;;;;;;;5033456;28;19925;-58
2022/11/03 13:24:43;;;;;;;;;;;;;;;;;;5033058;28;19932;-58
2022/11/03 13:27:10;;;;;;;;;;;;;;;;;;5032989;28;20421;-59
2022/11/03 13:29:36;;;;;;;;;;;;;;;;;;5032817;28;19925;-57
2022/11/03 13:32:04;;;;;;;;;;;;;;;;;;5032364;28;20006;-58
2022/11/03 13:34:31;;;;;;;;;;;;;;;;;;5051759;28;19925;-57
2022/11/03 13:36:58;;;;;;;;;;;;;;;;;;5052617;28;19924;-58
2022/11/03 13:39:25;;;;;;;;;;;;;;;;;;5052487;28;19924;-58
2022/11/03 13:41:52;;;;;;;;;;;;;;;;;;5052466;28;19932;-58
2022/11/03 13:44:19;;;;;;;;;;;;;;;;;;5052613;28;19973;-59
2022/11/03 13:46:45;;;;;;;;;;;;;;;;;;5052776;28;20007;-57
2022/11/03 13:49:14;;;;;;;;;;;;;;;;;;5052153;28;19925;-58
2022/11/03 13:51:41;;;;;;;;;;;;;;;;;;5052274;28;20394;-58
2022/11/03 13:54:07;;;;;;;;;;;;;;;;;;5052666;28;19925;-58
2022/11/03 13:56:34;;;;;;;;;;;;;;;;;;5051421;28;19924;-57
2022/11/03 13:59:01;;;;;;;;;;;;;;;;;;5032039;28;20417;-58
2022/11/03 14:01:27;;;;;;;;;;;;;;;;;;5032148;28;19929;-54
2022/11/03 14:03:54;;;;;;;;;;;;;;;;;;5021021;28;19979;-57
2022/11/03 14:06:22;;;;;;;;;;;;;;;;;;5012242;28;19992;-58
2022/11/03 14:08:48;;;;;;;;;;;;;;;;;;5011893;28;19929;-57
2022/11/03 14:13:59;;;;;;;;;;;;;;;;;;5012455;28;19931;-57
2022/11/03 14:16:25;;;;;;;;;;;;;;;;;;5012211;28;19926;-59
2022/11/03 14:18:52;;;;;;;;;;;;;;;;;;5012318;28;20393;-58
2022/11/03 14:21:19;;;;;;;;;;;;;;;;;;5011917;28;19930;-57
2022/11/03 14:23:47;;;;;;;;;;;;;;;;;;5012057;28;19949;-57
2022/11/03 14:26:13;;;;;;;;;;;;;;;;;;5011593;28;19929;-58
2022/11/03 14:28:40;;;;;;;;;;;;;;;;;;5011913;28;20543;-57
2022/11/03 14:33:33;;;;;;;;;;;;;;;;;;5028940;22;19925;-78
2022/11/03 14:36:00;;;;;;;;;;;;;;;;;;5011461;28;20387;-77
2022/11/03 14:38:26;;;;;;;;;;;;;;;;;;5011189;28;20009;-76
2022/11/03 14:43:38;;;;;;;;;;;;;;;;;;5011564;28;19949;-76
2022/11/03 14:46:05;;;;;;;;;;;;;;;;;;5011801;28;20015;-75
2022/11/03 14:48:32;;;;;;;;;;;;;;;;;;5011650;28;19941;-75
2022/11/03 14:50:58;;;;;;;;;;;;;;;;;;5011209;28;20509;-78
2022/11/03 14:53:25;;;;;;;;;;;;;;;;;;5014442;28;19968;-77
2022/11/03 14:55:51;;;;;;;;;;;;;;;;;;5011839;28;19930;-77
2022/11/03 14:58:19;;;;;;;;;;;;;;;;;;5011257;28;19968;-77
2022/11/03 15:00:46;;;;;;;;;;;;;;;;;;5011265;28;20089;-76
2022/11/03 15:03:12;;;;;;;;;;;;;;;;;;5011585;28;19987;-77
2022/11/03 15:05:45;;;;;;;;;;;;;;;;;;5011847;28;19964;-77
2022/11/03 15:08:13;;;;;;;;;;;;;;;;;;5010694;28;20119;-77
2022/11/03 15:10:40;;;;;;;;;;;;;;;;;;5011634;28;20329;-77
2022/11/03 15:13:07;;;;;;;;;;;;;;;;;;5011339;28;19925;-76
2022/11/03 15:15:35;;;;;;;;;;;;;;;;;;5011231;28;19948;-76
2022/11/03 15:18:02;;;;;;;;;;;;;;;;;;5012850;28;19988;-81
2022/11/03 15:20:28;;;;;;;;;;;;;;;;;;5013170;28;20028;-78
2022/11/03 15:22:55;;;;;;;;;;;;;;;;;;5012375;28;19925;-78
2022/11/03 15:25:21;;;;;;;;;;;;;;;;;;5011894;28;19925;-77
2022/11/03 15:27:48;;;;;;;;;;;;;;;;;;5011969;28;19926;-77
2022/11/03 15:30:15;;;;;;;;;;;;;;;;;;5011382;28;19964;-77
2022/11/03 15:32:43;;;;;;;;;;;;;;;;;;5010728;28;19933;-77
2022/11/03 15:35:09;;;;;;;;;;;;;;;;;;5012619;28;19956;-77
2022/11/03 15:37:36;;;;;;;;;;;;;;;;;;5011562;28;19929;-77
2022/11/03 15:40:02;;;;;;;;;;;;;;;;;;5010798;28;20010;-77
2022/11/03 15:42:29;;;;;;;;;;;;;;;;;;5011220;28;20028;-77
2022/11/03 15:44:55;;;;;;;;;;;;;;;;;;5012417;28;19965;-78
2022/11/03 15:47:22;;;;;;;;;;;;;;;;;;5011637;28;20482;-77
2022/11/03 15:49:50;;;;;;;;;;;;;;;;;;5011523;28;20004;-78
2022/11/03 15:52:16;;;;;;;;;;;;;;;;;;5011519;28;19971;-79
2022/11/03 15:54:43;;;;;;;;;;;;;;;;;;5010051;28;19977;-77
2022/11/03 15:57:09;;;;;;;;;;;;;;;;;;5010423;28;19995;-77
2022/11/03 15:59:36;;;;;;;;;;;;;;;;;;5010854;28;19992;-76
2022/11/03 16:02:02;;;;;;;;;;;;;;;;;;5010749;28;20023;-76
2022/11/03 16:04:28;;;;;;;;;;;;;;;;;;5010994;28;19933;-77
2022/11/03 16:06:56;;;;;;;;;;;;;;;;;;5010696;28;19976;-78
2022/11/03 16:09:23;;;;;;;;;;;;;;;;;;5010756;28;20041;-78
2022/11/03 16:11:49;;;;;;;;;;;;;;;;;;5010485;28;20384;-78
2022/11/03 16:14:16;;;;;;;;;;;;;;;;;;5010232;28;20399;-77
2022/11/03 16:16:42;;;;;;;;;;;;;;;;;;5010946;28;20008;-77
2022/11/03 16:19:09;;;;;;;;;;;;;;;;;;5011358;28;20396;-77
2022/11/03 16:21:36;;;;;;;;;;;;;;;;;;5010502;28;20012;-77
2022/11/03 16:24:04;;;;;;;;;;;;;;;;;;5004618;28;19929;-76
2022/11/03 16:26:30;;;;;;;;;;;;;;;;;;5010822;28;19926;-78
2022/11/03 16:28:57;;;;;;;;;;;;;;;;;;5011078;28;20287;-76
2022/11/03 16:31:23;;;;;;;;;;;;;;;;;;5010408;28;20032;-77
2022/11/03 16:33:50;;;;;;;;;;;;;;;;;;5010752;28;19926;-77
2022/11/03 16:36:17;;;;;;;;;;;;;;;;;;5011422;28;19933;-77
2022/11/03 16:38:43;;;;;;;;;;;;;;;;;;5010482;28;19931;-76
2022/11/03 16:41:11;;;;;;;;;;;;;;;;;;5010378;28;19999;-77
2022/11/03 16:43:38;;;;;;;;;;;;;;;;;;5010384;28;20025;-77
2022/11/03 16:46:04;;;;;;;;;;;;;;;;;;5010784;28;20585;-76
2022/11/03 16:48:31;;;;;;;;;;;;;;;;;;5010860;28;20021;-75
2022/11/03 16:50:58;;;;;;;;;;;;;;;;;;5012796;28;20364;-76
2022/11/03 16:53:25;;;;;;;;;;;;;;;;;;5015084;28;20512;-76
2022/11/03 16:55:51;;;;;;;;;;;;;;;;;;5015724;28;20045;-76
2022/11/03 16:58:19;;;;;;;;;;;;;;;;;;5013950;28;20396;-76
2022/11/03 17:00:46;;;;;;;;;;;;;;;;;;5014596;28;19925;-76
2022/11/03 17:03:12;;;;;;;;;;;;;;;;;;5013920;28;19968;-76
2022/11/03 17:05:39;;;;;;;;;;;;;;;;;;5014180;28;19925;-76
2022/11/03 17:08:05;;;;;;;;;;;;;;;;;;5012523;28;20017;-76
2022/11/03 17:10:32;;;;;;;;;;;;;;;;;;5012267;28;20016;-77
2022/11/03 17:12:58;;;;;;;;;;;;;;;;;;5013927;28;20015;-76
2022/11/03 17:15:26;;;;;;;;;;;;;;;;;;5014083;28;19984;-77
2022/11/03 17:17:53;;;;;;;;;;;;;;;;;;5013891;28;19972;-78
2022/11/03 17:20:19;;;;;;;;;;;;;;;;;;5013707;28;19932;-76
2022/11/03 17:22:46;;;;;;;;;;;;;;;;;;5013942;28;19925;-77